Time;durP1;ratioP1;P1;durP2;ratioP2;P2;SDS_P1;SDS_P2;PMS_P1;PMS_P2;Temp;Humidity;BMP_temperature;BMP_pressure;BME280_temperature;BME280_humidity;BME280_pressure;Samples;Min_cycle;Max_cycle;Signal;HPM_P1;HPM_P2
2023/01/27 00:00:15;;;;;;;28.53;15.87;;;;;;;1.90;100.00;101006.00;5044212;28;20446;-61
2023/01/27 00:02:43;;;;;;;32.10;14.10;;;;;;;1.95;100.00;101011.91;5064260;28;20485;-60
2023/01/27 00:05:12;;;;;;;31.53;15.40;;;;;;;1.91;100.00;101010.31;5060174;28;20445;-60
2023/01/27 00:07:44;;;;;;;30.77;14.20;;;;;;;2.03;100.00;101010.66;5064483;28;20458;-60
2023/01/27 00:10:13;;;;;;;30.03;13.50;;;;;;;2.12;100.00;101003.25;5049551;28;20455;-60
2023/01/27 00:15:25;;;;;;;36.20;13.87;;;;;;;2.07;100.00;101001.69;5028735;28;20442;-59
2023/01/27 00:17:52;;;;;;;32.00;14.10;;;;;;;2.14;100.00;100998.78;5057942;28;20890;-60
2023/01/27 00:24:34;;;;;;;26.60;13.50;;;;;;;2.17;100.00;101006.53;5043642;28;20610;-60
2023/01/27 00:25:59;;;;;;;29.23;14.67;;;;;;;2.17;100.00;101002.16;5042546;28;20489;-60
2023/01/27 00:28:29;;;;;;;28.70;15.60;;;;;;;2.10;100.00;101000.72;5044212;28;20498;-60
2023/01/27 00:30:58;;;;;;;30.30;14.53;;;;;;;2.23;100.00;100995.72;5044296;28;20474;-60
2023/01/27 00:33:24;;;;;;;36.70;15.60;;;;;;;2.21;100.00;100989.66;5044320;28;20461;-60
2023/01/27 00:35:56;;;;;;;25.07;14.37;;;;;;;2.31;100.00;100995.38;5056292;28;20848;-59
2023/01/27 00:38:23;;;;;;;35.23;15.07;;;;;;;2.20;100.00;100995.84;5063582;28;20211;-59
2023/01/27 00:43:30;;;;;;;31.57;15.87;;;;;;;2.19;100.00;100997.66;5024737;28;20447;-61
2023/01/27 00:45:58;;;;;;;31.73;14.37;;;;;;;2.16;100.00;101008.34;5042022;28;20478;-60
2023/01/27 00:48:25;;;;;;;26.13;13.40;;;;;;;2.21;100.00;101002.84;5043260;28;20435;-60
2023/01/27 00:50:51;;;;;;;26.17;14.13;;;;;;;2.21;100.00;100992.31;5049280;28;20503;-60
2023/01/27 00:53:18;;;;;;;31.60;15.83;;;;;;;2.15;100.00;101000.47;5053694;28;20482;-60
2023/01/27 00:55:46;;;;;;;23.63;13.77;;;;;;;2.26;100.00;100998.22;5062837;28;20476;-60
2023/01/27 00:58:12;;;;;;;29.17;15.93;;;;;;;2.33;100.00;100998.81;5062692;28;20473;-60
2023/01/27 01:00:39;;;;;;;30.23;14.40;;;;;;;2.20;100.00;100999.34;5042122;28;20501;-59
2023/01/27 01:03:07;;;;;;;24.90;14.90;;;;;;;2.42;100.00;100999.25;5042859;28;20494;-60
2023/01/27 01:05:34;;;;;;;29.43;13.57;;;;;;;2.42;100.00;101003.66;5042051;28;20524;-60
2023/01/27 01:08:01;;;;;;;33.00;14.57;;;;;;;2.34;100.00;100988.16;5045774;28;20564;-60
2023/01/27 01:10:27;;;;;;;23.50;13.27;;;;;;;2.36;100.00;101001.28;5042418;28;20497;-61
2023/01/27 01:12:54;;;;;;;30.27;13.43;;;;;;;2.45;100.00;101007.03;5042778;28;20524;-61
2023/01/27 01:15:21;;;;;;;28.57;13.67;;;;;;;2.52;100.00;101002.31;5044083;28;20442;-60
2023/01/27 01:17:47;;;;;;;24.57;12.97;;;;;;;2.44;100.00;101004.44;5058447;28;20524;-60
2023/01/27 01:20:16;;;;;;;24.10;13.53;;;;;;;2.33;100.00;100991.75;5042041;28;20434;-61
2023/01/27 01:22:42;;;;;;;25.90;12.37;;;;;;;2.41;100.00;100997.53;5041710;28;20652;-61
2023/01/27 01:25:09;;;;;;;28.47;12.77;;;;;;;2.30;100.00;101001.59;5042536;28;20431;-60
2023/01/27 01:27:36;;;;;;;32.03;14.10;;;;;;;2.47;100.00;101001.69;5044939;28;20500;-60
2023/01/27 01:30:03;;;;;;;25.90;13.13;;;;;;;2.43;100.00;101011.53;5030502;28;20451;-60
2023/01/27 01:32:29;;;;;;;26.13;13.10;;;;;;;2.37;100.00;101026.78;5017693;28;20495;-60
2023/01/27 01:34:56;;;;;;;24.03;13.90;;;;;;;2.30;100.00;101018.28;5022878;28;20443;-60
2023/01/27 01:37:24;;;;;;;25.33;13.77;;;;;;;2.26;100.00;101014.06;5028242;28;20479;-60
2023/01/27 01:39:51;;;;;;;22.23;12.37;;;;;;;2.34;100.00;101013.72;5038916;28;20471;-60
2023/01/27 01:42:18;;;;;;;26.90;14.73;;;;;;;2.34;100.00;101011.06;5038561;28;20486;-61
2023/01/27 01:44:45;;;;;;;25.80;14.50;;;;;;;2.23;100.00;101006.28;5035724;28;20437;-60
2023/01/27 01:47:15;;;;;;;26.97;12.80;;;;;;;2.27;100.00;101010.47;5061133;28;20568;-60
2023/01/27 01:49:43;;;;;;;28.80;15.43;;;;;;;2.24;100.00;101019.41;5056904;28;20438;-60
2023/01/27 01:52:12;;;;;;;29.83;15.17;;;;;;;2.41;100.00;101007.22;5041048;28;20513;-63
2023/01/27 01:54:41;;;;;;;27.97;15.10;;;;;;;2.31;100.00;101013.84;5042174;28;20431;-60
2023/01/27 01:57:11;;;;;;;29.73;14.67;;;;;;;2.34;100.00;101004.00;5058091;28;20520;-60
2023/01/27 01:59:41;;;;;;;28.17;14.77;;;;;;;2.38;100.00;101010.03;5057194;28;20478;-60
2023/01/27 02:02:10;;;;;;;27.60;15.10;;;;;;;2.25;100.00;101009.69;5041198;28;20497;-60
2023/01/27 02:04:39;;;;;;;30.90;14.13;;;;;;;2.25;100.00;101002.63;5043907;28;20946;-59
2023/01/27 02:07:08;;;;;;;23.80;15.07;;;;;;;2.26;100.00;101007.00;5061649;28;20441;-60
2023/01/27 02:09:35;;;;;;;28.87;13.77;;;;;;;2.25;100.00;101007.91;5056160;28;20524;-60
2023/01/27 02:12:03;;;;;;;26.27;15.03;;;;;;;2.33;100.00;101007.59;5041436;28;20458;-60
2023/01/27 02:14:30;;;;;;;26.23;14.07;;;;;;;2.28;100.00;101004.28;5042044;28;20469;-59
2023/01/27 02:16:58;;;;;;;27.83;14.57;;;;;;;2.38;100.00;101008.22;5040726;28;21136;-60
2023/01/27 02:19:27;;;;;;;34.27;14.80;;;;;;;2.41;100.00;101005.47;5043605;28;20473;-60
2023/01/27 02:21:55;;;;;;;21.30;12.10;;;;;;;2.48;100.00;100997.25;5060941;28;20453;-60
2023/01/27 02:24:24;;;;;;;26.93;13.87;;;;;;;2.30;100.00;101004.22;5057511;28;20465;-60
2023/01/27 02:26:52;;;;;;;32.80;14.80;;;;;;;2.28;100.00;101001.66;5041182;28;20470;-61
2023/01/27 02:29:18;;;;;;;25.67;14.87;;;;;;;2.30;100.00;101009.50;5041558;28;20492;-61
2023/01/27 02:31:45;;;;;;;25.60;13.67;;;;;;;2.34;100.00;101005.78;5040271;28;20488;-60
2023/01/27 02:34:15;;;;;;;25.47;15.27;;;;;;;2.26;100.00;101001.72;5042151;28;20442;-60
2023/01/27 02:36:46;;;;;;;23.03;13.17;;;;;;;2.32;100.00;101007.66;5040903;28;20458;-60
2023/01/27 02:39:15;;;;;;;27.70;14.50;;;;;;;2.37;100.00;101009.16;5039395;28;20482;-60
2023/01/27 02:41:43;;;;;;;30.07;15.23;;;;;;;2.28;100.00;101014.00;5040245;28;20522;-60
2023/01/27 02:44:12;;;;;;;26.20;13.70;;;;;;;2.30;100.00;101002.44;5041062;28;20919;-60
2023/01/27 02:46:38;;;;;;;24.43;13.73;;;;;;;2.37;100.00;101006.50;5039586;28;20556;-60
2023/01/27 02:49:05;;;;;;;27.63;13.63;;;;;;;2.32;100.00;101010.28;5041230;28;20447;-61
2023/01/27 02:51:32;;;;;;;22.43;14.33;;;;;;;2.32;100.00;101018.19;5039415;28;20481;-61
2023/01/27 02:53:59;;;;;;;20.77;11.97;;;;;;;2.44;100.00;101012.38;5040747;28;20478;-61
2023/01/27 02:56:25;;;;;;;23.87;13.60;;;;;;;2.36;100.00;101006.56;5040083;28;20482;-60
2023/01/27 02:58:52;;;;;;;27.33;14.73;;;;;;;2.38;100.00;101017.94;5040658;28;20478;-60
2023/01/27 03:01:20;;;;;;;24.43;13.73;;;;;;;2.46;100.00;101018.44;5048272;28;20473;-60
2023/01/27 03:03:47;;;;;;;23.90;13.57;;;;;;;2.48;100.00;101021.84;5060281;28;20498;-59
2023/01/27 03:06:14;;;;;;;26.77;15.13;;;;;;;2.39;100.00;101014.34;5043607;28;20482;-60
2023/01/27 03:08:41;;;;;;;27.67;14.33;;;;;;;2.50;100.00;101019.16;5041731;28;20434;-61
2023/01/27 03:11:08;;;;;;;28.63;16.03;;;;;;;2.41;100.00;101030.97;5044002;28;20466;-60
2023/01/27 03:13:36;;;;;;;28.60;14.63;;;;;;;2.43;100.00;101023.84;5045052;28;20500;-60
2023/01/27 03:18:50;;;;;;;23.80;14.50;;;;;;;2.54;100.00;101026.00;5047889;28;20553;-60
2023/01/27 03:21:17;;;;;;;28.30;13.20;;;;;;;2.49;100.00;101025.38;5063969;28;20531;-61
2023/01/27 03:23:47;;;;;;;26.97;14.93;;;;;;;2.44;100.00;101025.56;5044343;28;20847;-60
2023/01/27 03:26:14;;;;;;;27.80;14.23;;;;;;;2.51;100.00;101034.91;5015924;28;20475;-61
2023/01/27 03:28:40;;;;;;;27.80;13.10;;;;;;;2.43;100.00;101024.72;5025354;28;20434;-61
2023/01/27 03:31:18;;;;;;;24.40;13.40;;;;;;;2.57;100.00;101025.84;5023954;28;20479;-61
2023/01/27 03:33:46;;;;;;;26.30;12.80;;;;;;;2.50;100.00;101030.56;5005655;28;20446;-60
2023/01/27 03:47:11;;;;;;;27.63;13.73;;;;;;;2.78;100.00;101024.03;5042939;28;20484;-62
2023/01/27 03:49:38;;;;;;;25.03;14.50;;;;;;;2.66;100.00;101040.41;5044773;28;20430;-61
2023/01/27 03:52:06;;;;;;;23.50;13.47;;;;;;;2.67;100.00;101028.94;5042536;28;20820;-60
2023/01/27 03:54:32;;;;;;;26.90;12.47;;;;;;;2.71;100.00;101033.13;5044278;28;20474;-60
2023/01/27 03:57:04;;;;;;;21.90;13.43;;;;;;;2.65;100.00;101026.38;5052943;28;20516;-60
2023/01/27 03:59:31;;;;;;;22.90;12.90;;;;;;;2.57;100.00;101034.66;5041536;28;20495;-60
2023/01/27 04:07:28;;;;;;;22.93;13.20;;;;;;;2.79;100.00;101031.84;5043497;28;20484;-60
2023/01/27 04:09:55;;;;;;;22.27;13.67;;;;;;;2.65;100.00;101029.00;5044209;28;20997;-60
2023/01/27 04:12:21;;;;;;;24.10;13.10;;;;;;;2.59;100.00;101030.16;5060194;28;20538;-60
2023/01/27 04:14:47;;;;;;;21.90;12.50;;;;;;;2.71;100.00;101038.41;5050302;28;20437;-60
2023/01/27 04:17:15;;;;;;;22.57;12.40;;;;;;;2.66;100.00;101045.69;5062033;28;20329;-60
2023/01/27 04:19:42;;;;;;;20.60;11.87;;;;;;;2.65;100.00;101034.28;5061916;28;21036;-60
2023/01/27 04:22:10;;;;;;;23.47;13.97;;;;;;;2.70;100.00;101047.28;5042068;28;20478;-60
2023/01/27 04:24:39;;;;;;;20.90;13.20;;;;;;;2.63;100.00;101041.41;5043858;28;20520;-60
2023/01/27 04:27:07;;;;;;;23.50;13.80;;;;;;;2.57;100.00;101047.84;5052228;28;20478;-60
2023/01/27 04:29:35;;;;;;;23.83;12.43;;;;;;;2.63;100.00;101050.19;5030236;28;20435;-60
2023/01/27 04:32:03;;;;;;;26.90;12.60;;;;;;;2.67;100.00;101042.97;5061948;28;20485;-60
2023/01/27 04:34:30;;;;;;;20.93;14.37;;;;;;;2.70;100.00;101053.41;5062242;28;20512;-60
2023/01/27 04:36:57;;;;;;;23.27;12.93;;;;;;;2.66;100.00;101051.84;5031303;28;20495;-60
2023/01/27 04:39:24;;;;;;;20.77;13.37;;;;;;;2.74;100.00;101043.56;5023938;28;20475;-61
2023/01/27 04:41:52;;;;;;;20.17;12.50;;;;;;;2.67;100.00;101060.63;5055234;28;20474;-62
2023/01/27 04:44:20;;;;;;;23.03;14.27;;;;;;;2.63;100.00;101058.09;5043781;28;20447;-61
2023/01/27 04:46:47;;;;;;;25.70;15.23;;;;;;;2.68;100.00;101070.25;5061849;28;20596;-61
2023/01/27 04:49:13;;;;;;;22.60;14.23;;;;;;;2.62;100.00;101063.44;5064253;28;20429;-61
2023/01/27 04:51:40;;;;;;;26.23;13.93;;;;;;;2.68;100.00;101068.47;5061426;28;20507;-62
2023/01/27 04:54:07;;;;;;;21.50;13.43;;;;;;;2.56;100.00;101061.97;5062814;28;20477;-62
2023/01/27 04:56:35;;;;;;;20.97;13.73;;;;;;;2.68;100.00;101071.13;5054599;28;20486;-61
2023/01/27 04:59:05;;;;;;;26.13;14.30;;;;;;;2.60;100.00;101066.19;5044179;28;20470;-61
2023/01/27 05:01:32;;;;;;;24.80;13.13;;;;;;;2.72;100.00;101067.41;5044941;28;21003;-60
2023/01/27 05:03:58;;;;;;;24.30;12.97;;;;;;;2.70;100.00;101079.81;5042318;28;20505;-61
2023/01/27 05:06:26;;;;;;;24.80;13.90;;;;;;;2.69;100.00;101077.25;5043054;28;20490;-61
2023/01/27 05:08:53;;;;;;;21.03;12.20;;;;;;;2.71;100.00;101086.81;5045563;28;20464;-61
2023/01/27 05:11:20;;;;;;;27.03;13.93;;;;;;;2.67;100.00;101079.94;5022276;28;20479;-60
2023/01/27 05:13:47;;;;;;;21.50;12.33;;;;;;;2.77;100.00;101089.16;5022536;28;21101;-61
2023/01/27 05:16:17;;;;;;;18.83;11.20;;;;;;;2.74;100.00;101085.81;5037945;28;20477;-60
2023/01/27 05:18:45;;;;;;;18.87;11.77;;;;;;;2.74;100.00;101089.34;5060393;28;20471;-60
2023/01/27 05:21:13;;;;;;;20.60;11.63;;;;;;;2.68;100.00;101080.81;5048608;28;20532;-60
2023/01/27 05:23:40;;;;;;;19.60;12.10;;;;;;;2.62;100.00;101084.56;5041149;28;20446;-60
2023/01/27 05:26:10;;;;;;;19.13;13.17;;;;;;;2.72;100.00;101082.38;5037121;28;20496;-61
2023/01/27 05:28:38;;;;;;;17.93;9.57;;;;;;;2.68;100.00;101071.13;5042088;28;20454;-60
2023/01/27 05:31:06;;;;;;;15.13;10.30;;;;;;;2.84;100.00;101081.81;5037487;28;20467;-61
2023/01/27 05:33:35;;;;;;;16.70;9.87;;;;;;;2.72;100.00;101077.09;5038888;28;20447;-61
2023/01/27 05:36:03;;;;;;;11.60;8.80;;;;;;;2.78;100.00;101082.13;5033843;28;20553;-61
2023/01/27 05:38:30;;;;;;;15.30;10.13;;;;;;;2.69;100.00;101079.88;5027910;28;21002;-61
2023/01/27 05:40:59;;;;;;;14.00;10.00;;;;;;;2.85;100.00;101088.84;5052871;28;20534;-61
2023/01/27 05:43:26;;;;;;;11.80;9.07;;;;;;;2.88;100.00;101101.03;5062163;28;20460;-61
2023/01/27 05:45:53;;;;;;;14.00;9.20;;;;;;;2.78;100.00;101090.03;5059992;28;20511;-61
2023/01/27 05:48:19;;;;;;;13.30;9.10;;;;;;;2.76;100.00;101103.31;5055356;28;20450;-61
2023/01/27 05:50:56;;;;;;;14.37;9.17;;;;;;;2.80;100.00;101089.03;5060789;28;20991;-61
2023/01/27 05:53:23;;;;;;;13.30;9.83;;;;;;;2.80;100.00;101104.03;5056797;28;20542;-61
2023/01/27 05:55:50;;;;;;;13.57;8.97;;;;;;;2.86;100.00;101095.81;5048409;28;20469;-61
2023/01/27 05:58:17;;;;;;;14.60;10.00;;;;;;;2.98;100.00;101097.88;5052856;28;20487;-63
2023/01/27 06:00:44;;;;;;;14.73;9.60;;;;;;;2.89;100.00;101102.75;5050717;28;20532;-59
2023/01/27 06:03:10;;;;;;;16.50;10.40;;;;;;;2.82;100.00;101104.81;5051082;28;20457;-59
2023/01/27 06:05:37;;;;;;;13.53;9.57;;;;;;;2.81;100.00;101105.72;5048895;28;20469;-60
2023/01/27 06:08:05;;;;;;;15.30;9.40;;;;;;;2.82;100.00;101112.72;5037897;28;20446;-59
2023/01/27 06:10:35;;;;;;;14.20;10.43;;;;;;;2.87;100.00;101108.09;5028668;28;20468;-59
2023/01/27 06:13:03;;;;;;;13.60;10.30;;;;;;;2.85;100.00;101115.25;5017421;28;20463;-60
2023/01/27 06:15:30;;;;;;;14.93;9.60;;;;;;;2.71;100.00;101121.16;5016393;28;20467;-60
2023/01/27 06:17:56;;;;;;;12.43;9.27;;;;;;;2.77;100.00;101115.56;5017239;28;20463;-60
2023/01/27 06:20:24;;;;;;;16.60;11.37;;;;;;;2.80;100.00;101122.50;5010616;28;20531;-60
2023/01/27 06:22:50;;;;;;;14.10;10.37;;;;;;;2.75;100.00;101120.06;5019850;28;21064;-61
2023/01/27 06:25:19;;;;;;;15.23;9.77;;;;;;;2.75;100.00;101129.78;5021005;28;20436;-61
2023/01/27 06:27:45;;;;;;;13.67;10.00;;;;;;;2.73;100.00;101126.38;5025806;28;20435;-61
2023/01/27 06:30:13;;;;;;;13.60;9.43;;;;;;;2.72;100.00;101122.84;5034054;28;20451;-61
2023/01/27 06:32:39;;;;;;;13.03;9.37;;;;;;;2.77;100.00;101130.56;5021973;28;20451;-61
2023/01/27 06:35:07;;;;;;;16.70;9.07;;;;;;;2.80;100.00;101136.56;5020690;28;20447;-61
2023/01/27 06:37:34;;;;;;;12.60;8.90;;;;;;;2.76;100.00;101136.75;5020149;28;20817;-61
2023/01/27 06:40:00;;;;;;;13.17;9.43;;;;;;;2.75;100.00;101135.06;5021167;28;20486;-60
2023/01/27 06:42:29;;;;;;;12.10;8.33;;;;;;;2.82;100.00;101140.00;5025478;28;20478;-60
2023/01/27 06:44:56;;;;;;;15.73;9.47;;;;;;;2.83;100.00;101141.72;5021780;28;20491;-61
2023/01/27 06:47:23;;;;;;;13.23;8.60;;;;;;;2.81;100.00;101135.66;5025913;28;20513;-60
2023/01/27 06:49:50;;;;;;;13.97;8.50;;;;;;;2.83;100.00;101136.44;5041264;28;20789;-60
2023/01/27 06:52:17;;;;;;;11.50;8.47;;;;;;;2.77;100.00;101136.69;5021058;28;20541;-60
2023/01/27 06:54:46;;;;;;;11.73;8.40;;;;;;;2.91;100.00;101141.34;5020851;28;20820;-60
2023/01/27 06:57:15;;;;;;;13.00;8.50;;;;;;;2.84;100.00;101145.22;5020360;28;20897;-60
2023/01/27 06:59:43;;;;;;;12.77;9.03;;;;;;;2.70;100.00;101131.78;5020999;28;20471;-60
2023/01/27 07:02:12;;;;;;;12.27;8.90;;;;;;;2.84;100.00;101142.56;5021682;28;20569;-60
2023/01/27 07:04:39;;;;;;;12.00;8.57;;;;;;;2.73;100.00;101140.41;5021444;28;20478;-60
2023/01/27 07:07:06;;;;;;;13.03;6.80;;;;;;;2.81;100.00;101151.50;5020324;28;20478;-61
2023/01/27 07:09:32;;;;;;;17.23;7.87;;;;;;;2.86;100.00;101151.28;5021229;28;20431;-60
2023/01/27 07:11:59;;;;;;;11.63;7.33;;;;;;;2.86;100.00;101159.19;5019895;28;20490;-60
2023/01/27 07:14:26;;;;;;;12.73;7.90;;;;;;;2.72;100.00;101156.31;5040214;28;20442;-60
2023/01/27 07:16:54;;;;;;;10.90;7.63;;;;;;;2.79;100.00;101163.88;5025232;28;20545;-60
2023/01/27 07:19:21;;;;;;;10.93;7.43;;;;;;;2.76;100.00;101168.44;5021020;28;20431;-59
2023/01/27 07:21:47;;;;;;;12.40;7.83;;;;;;;2.85;100.00;101168.06;5019366;28;20826;-59
2023/01/27 07:24:14;;;;;;;13.67;8.03;;;;;;;2.79;100.00;101166.53;5038727;28;20500;-59
2023/01/27 07:26:42;;;;;;;14.57;8.53;;;;;;;2.86;100.00;101161.00;5040388;28;20478;-59
2023/01/27 07:29:09;;;;;;;12.63;7.97;;;;;;;2.82;100.00;101171.69;5040632;28;20435;-59
2023/01/27 07:31:36;;;;;;;13.97;8.53;;;;;;;2.86;100.00;101172.41;5034539;28;20475;-59
2023/01/27 07:34:04;;;;;;;9.80;7.47;;;;;;;2.97;100.00;101178.06;5023078;28;20754;-59
2023/01/27 07:36:30;;;;;;;12.03;7.27;;;;;;;2.95;100.00;101184.34;5017985;28;21167;-59
2023/01/27 07:38:57;;;;;;;14.60;8.37;;;;;;;2.94;100.00;101175.56;5020049;28;20427;-59
2023/01/27 07:41:25;;;;;;;16.07;9.30;;;;;;;2.99;100.00;101175.38;5018488;28;20495;-59
2023/01/27 07:43:51;;;;;;;13.93;9.00;;;;;;;2.93;100.00;101181.75;5020691;28;20510;-59
2023/01/27 07:46:19;;;;;;;16.17;9.37;;;;;;;2.99;100.00;101180.66;5018697;28;20483;-59
2023/01/27 07:48:45;;;;;;;16.03;9.27;;;;;;;3.02;100.00;101180.50;5020774;28;20901;-59
2023/01/27 07:51:14;;;;;;;16.90;9.20;;;;;;;3.00;100.00;101183.22;5035722;28;20490;-59
2023/01/27 07:53:41;;;;;;;14.67;9.67;;;;;;;3.00;100.00;101183.22;5039188;28;20481;-60
2023/01/27 07:56:10;;;;;;;13.37;8.17;;;;;;;3.07;100.00;101186.41;5040538;28;20613;-59
2023/01/27 07:58:37;;;;;;;13.97;8.37;;;;;;;3.05;100.00;101198.84;5043968;28;20438;-60
2023/01/27 08:01:05;;;;;;;12.77;8.37;;;;;;;3.15;100.00;101196.66;5026455;28;21059;-60
2023/01/27 08:03:32;;;;;;;15.60;9.40;;;;;;;3.15;100.00;101196.66;5023291;28;20527;-60
2023/01/27 08:05:59;;;;;;;16.67;10.43;;;;;;;3.11;100.00;101200.38;5023682;28;20537;-59
2023/01/27 08:08:27;;;;;;;18.90;9.43;;;;;;;3.11;100.00;101209.16;5023664;28;20436;-60
2023/01/27 08:10:54;;;;;;;14.60;9.73;;;;;;;3.12;100.00;101212.66;5035875;28;20567;-59
2023/01/27 08:13:20;;;;;;;17.30;11.17;;;;;;;3.04;100.00;101215.66;5043364;28;20541;-60
2023/01/27 08:15:47;;;;;;;17.13;11.10;;;;;;;3.12;100.00;101210.00;5042498;28;20523;-60
2023/01/27 08:18:14;;;;;;;20.07;11.20;;;;;;;3.09;100.00;101216.31;5043125;28;20458;-60
2023/01/27 08:20:40;;;;;;;19.07;11.33;;;;;;;3.05;100.00;101213.84;5030939;28;20490;-60
2023/01/27 08:23:07;;;;;;;18.87;10.77;;;;;;;3.12;100.00;101218.78;5022136;28;20481;-60
2023/01/27 08:25:35;;;;;;;15.57;10.83;;;;;;;3.13;100.00;101233.72;5022459;28;20477;-59
2023/01/27 08:28:02;;;;;;;16.23;9.70;;;;;;;3.16;100.00;101230.06;5023563;28;20431;-59
2023/01/27 08:30:29;;;;;;;17.70;11.80;;;;;;;3.12;100.00;101228.50;5031453;28;20470;-59
2023/01/27 08:32:55;;;;;;;15.20;9.77;;;;;;;3.09;100.00;101226.00;5029265;28;20455;-60
2023/01/27 08:35:22;;;;;;;18.70;10.87;;;;;;;3.06;100.00;101221.72;5022986;28;20493;-60
2023/01/27 08:37:50;;;;;;;15.90;11.10;;;;;;;3.06;100.00;101224.34;5022557;28;20443;-59
2023/01/27 08:40:17;;;;;;;16.80;10.60;;;;;;;3.07;100.00;101225.22;5022780;28;20545;-60
2023/01/27 08:42:46;;;;;;;19.33;11.03;;;;;;;3.15;100.00;101221.28;5042729;28;20528;-61
2023/01/27 08:45:13;;;;;;;18.80;11.40;;;;;;;3.16;100.00;101232.72;5041918;28;20763;-60
2023/01/27 08:47:39;;;;;;;19.07;12.23;;;;;;;3.14;100.00;101239.84;5042210;28;20459;-61
2023/01/27 08:50:07;;;;;;;16.70;10.47;;;;;;;2.92;100.00;101238.19;5048313;28;20532;-63
2023/01/27 08:52:35;;;;;;;17.10;10.57;;;;;;;2.91;100.00;101257.56;5060675;28;20496;-60
2023/01/27 08:55:02;;;;;;;14.83;10.33;;;;;;;2.81;100.00;101246.56;5062943;28;20509;-60
2023/01/27 08:57:31;;;;;;;15.93;10.37;;;;;;;2.85;100.00;101260.50;5061476;28;20552;-60
2023/01/27 08:59:59;;;;;;;17.77;10.57;;;;;;;2.85;100.00;101262.25;5056913;28;20879;-61
2023/01/27 09:02:26;;;;;;;17.70;10.53;;;;;;;2.71;100.00;101261.09;5041272;28;20505;-60
2023/01/27 09:04:53;;;;;;;16.37;11.00;;;;;;;2.89;100.00;101266.50;5041940;28;20460;-60
2023/01/27 09:07:22;;;;;;;12.23;9.77;;;;;;;2.78;100.00;101269.63;5041386;28;21003;-60
2023/01/27 09:09:49;;;;;;;15.20;9.10;;;;;;;2.79;100.00;101263.38;5042937;28;20439;-61
2023/01/27 09:12:16;;;;;;;13.70;9.00;;;;;;;2.78;100.00;101266.97;5040770;28;20939;-60
2023/01/27 09:14:43;;;;;;;13.73;9.80;;;;;;;2.76;100.00;101280.25;5041391;28;21005;-60
2023/01/27 09:17:11;;;;;;;12.67;9.07;;;;;;;2.77;100.00;101278.44;5040858;28;20846;-60
2023/01/27 09:19:38;;;;;;;13.83;10.70;;;;;;;2.70;100.00;101296.31;5044167;28;20485;-61
2023/01/27 09:22:05;;;;;;;11.93;9.87;;;;;;;2.75;100.00;101288.22;5060152;28;20497;-61
2023/01/27 09:24:31;;;;;;;13.70;9.40;;;;;;;2.69;100.00;101285.81;5062510;28;20472;-61
2023/01/27 09:26:58;;;;;;;13.50;9.70;;;;;;;2.67;100.00;101291.16;5061408;28;20477;-61
2023/01/27 09:29:28;;;;;;;15.37;10.00;;;;;;;2.75;100.00;101283.78;5061264;28;20697;-61
2023/01/27 09:31:55;;;;;;;13.37;9.27;;;;;;;2.88;100.00;101293.84;5056856;28;20856;-61
2023/01/27 09:34:23;;;;;;;14.37;9.87;;;;;;;2.88;100.00;101299.13;5041598;28;20899;-61
2023/01/27 09:36:52;;;;;;;19.00;11.77;;;;;;;2.84;100.00;101290.47;5040451;28;20474;-61
2023/01/27 09:39:19;;;;;;;16.13;10.03;;;;;;;2.76;100.00;101301.38;5042178;28;20430;-61
2023/01/27 09:42:07;;;;;;;14.30;10.10;;;;;;;2.80;100.00;101304.72;5040460;28;20506;-61
2023/01/27 09:44:55;;;;;;;15.83;11.70;;;;;;;3.00;100.00;101288.91;5041066;28;20435;-60
2023/01/27 09:47:45;;;;;;;14.60;10.07;;;;;;;2.80;100.00;101302.09;5040681;28;20513;-60
2023/01/27 09:50:47;;;;;;;13.53;9.20;;;;;;;2.81;100.00;101314.34;5046004;28;20441;-60
2023/01/27 09:53:29;;;;;;;11.60;7.87;;;;;;;2.80;100.00;101302.09;5057970;28;20997;-60
2023/01/27 09:56:01;;;;;;;12.47;9.47;;;;;;;2.92;100.00;101300.72;5060490;28;20611;-61
2023/01/27 09:58:35;;;;;;;11.83;8.03;;;;;;;2.94;100.00;101306.78;5061019;28;20948;-60
2023/01/27 10:01:09;;;;;;;12.90;9.30;;;;;;;2.86;100.00;101312.38;5048470;28;20473;-60
2023/01/27 10:03:50;;;;;;;9.73;7.20;;;;;;;2.97;100.00;101302.22;5040862;28;20461;-59
2023/01/27 10:06:30;;;;;;;9.23;7.40;;;;;;;2.94;100.00;101304.16;5039538;28;20482;-60
2023/01/27 10:09:11;;;;;;;14.67;7.70;;;;;;;2.91;100.00;101301.63;5041388;28;20980;-60
2023/01/27 10:11:42;;;;;;;9.20;8.13;;;;;;;2.85;100.00;101292.19;5039982;28;20477;-60
2023/01/27 10:14:19;;;;;;;6.80;5.80;;;;;;;2.77;100.00;101302.22;5040571;28;20848;-60
2023/01/27 10:17:01;;;;;;;10.00;6.70;;;;;;;3.06;100.00;101297.47;5039722;28;21160;-60
2023/01/27 10:19:44;;;;;;;6.70;5.10;;;;;;;3.07;100.00;101300.03;5040685;28;20435;-60
2023/01/27 10:22:16;;;;;;;6.90;5.63;;;;;;;3.15;100.00;101295.28;5020000;28;20491;-60
2023/01/27 10:24:57;;;;;;;7.03;5.20;;;;;;;3.13;100.00;101293.66;5021716;28;20439;-60
2023/01/27 10:27:25;;;;;;;4.67;3.63;;;;;;;2.99;100.00;101294.25;5020314;28;20545;-61
2023/01/27 10:29:57;;;;;;;4.90;4.00;;;;;;;3.11;100.00;101291.06;5024828;28;20451;-60
2023/01/27 10:32:27;;;;;;;4.20;3.70;;;;;;;3.10;100.00;101291.97;5053393;28;20481;-61
2023/01/27 10:35:05;;;;;;;5.07;4.57;;;;;;;3.33;100.00;101290.97;5040318;28;21070;-60
2023/01/27 10:37:40;;;;;;;5.50;4.77;;;;;;;3.21;100.00;101299.44;5020678;28;20474;-60
2023/01/27 10:40:14;;;;;;;4.07;3.77;;;;;;;3.00;100.00;101299.47;5023204;28;20449;-60
2023/01/27 10:42:45;;;;;;;4.87;4.17;;;;;;;2.96;100.00;101297.84;5059471;28;20461;-62
2023/01/27 10:45:27;;;;;;;4.93;3.83;;;;;;;3.05;100.00;101307.16;5060422;28;20418;-60
2023/01/27 10:48:05;;;;;;;4.77;3.63;;;;;;;3.36;100.00;101311.97;5060324;28;20540;-60
2023/01/27 10:50:35;;;;;;;4.90;3.93;;;;;;;3.42;100.00;101304.69;5052863;28;20488;-60
2023/01/27 10:53:06;;;;;;;7.00;5.60;;;;;;;3.38;100.00;101303.97;5039201;28;20545;-60
2023/01/27 10:55:40;;;;;;;5.70;3.33;;;;;;;3.66;100.00;101300.94;5040526;28;20473;-61
2023/01/27 10:58:12;;;;;;;4.97;4.03;;;;;;;3.57;100.00;101304.84;5039807;28;20473;-60
2023/01/27 11:00:40;;;;;;;3.80;3.30;;;;;;;3.58;100.00;101298.66;5047004;28;20489;-60
2023/01/27 11:03:10;;;;;;;4.43;4.03;;;;;;;3.58;100.00;101295.16;5059920;28;20456;-60
2023/01/27 11:05:39;;;;;;;6.47;4.03;;;;;;;3.64;100.00;101291.38;5059287;28;20495;-61
2023/01/27 11:08:11;;;;;;;7.80;3.80;;;;;;;3.43;100.00;101290.56;5060859;28;20433;-60
2023/01/27 11:11:43;;;;;;;4.63;4.20;;;;;;;3.53;100.00;101289.22;5052278;28;20548;-60
2023/01/27 11:13:31;;;;;;;4.23;3.70;;;;;;;3.44;100.00;101293.13;5039899;28;20963;-60
2023/01/27 11:15:58;;;;;;;4.23;3.83;;;;;;;3.59;100.00;101291.56;5039509;28;21080;-60
2023/01/27 11:18:28;;;;;;;4.70;4.00;;;;;;;3.64;100.00;101296.66;5039356;28;20450;-60
2023/01/27 11:20:58;;;;;;;6.50;4.23;;;;;;;3.60;100.00;101300.38;5039698;28;20490;-61
2023/01/27 11:23:28;;;;;;;5.50;4.30;;;;;;;3.67;100.00;101294.72;5040160;28;20449;-61
2023/01/27 11:26:04;;;;;;;5.90;4.43;;;;;;;3.65;100.00;101287.81;5040003;28;20470;-60
2023/01/27 11:28:36;;;;;;;5.77;4.10;;;;;;;3.98;100.00;101293.31;5039667;28;20430;-61
2023/01/27 11:31:07;;;;;;;4.73;3.77;;;;;;;3.72;100.00;101299.81;5042131;28;20466;-60
2023/01/27 11:33:43;;;;;;;6.60;3.40;;;;;;;3.80;100.00;101296.81;5042877;28;20457;-61
2023/01/27 11:36:10;;;;;;;5.30;3.57;;;;;;;4.03;100.00;101293.94;5043425;28;20482;-62
2023/01/27 11:38:37;;;;;;;3.57;3.20;;;;;;;4.30;100.00;101294.38;5044406;28;20430;-62
2023/01/27 11:41:05;;;;;;;4.10;3.70;;;;;;;4.11;100.00;101297.09;5042514;28;20501;-60
2023/01/27 11:43:33;;;;;;;8.27;3.73;;;;;;;3.94;100.00;101289.94;5044366;28;20480;-60
2023/01/27 11:46:02;;;;;;;3.30;2.90;;;;;;;4.03;100.00;101298.34;5044177;28;20469;-61
2023/01/27 11:48:36;;;;;;;4.97;3.67;;;;;;;3.63;100.00;101297.56;5043004;28;20521;-60